Time;durP1;ratioP1;P1;durP2;ratioP2;P2;SDS_P1;SDS_P2;PMS_P1;PMS_P2;Temp;Humidity;BMP_temperature;BMP_pressure;BME280_temperature;BME280_humidity;BME280_pressure;Samples;Min_cycle;Max_cycle;Signal;HPM_P1;HPM_P2
2022/07/17 00:02:04;;;;;;;3.53;1.85;;;;;;;12.69;100.00;101616.94;5069814;28;20099;-68
2022/07/17 00:04:30;;;;;;;7.75;2.33;;;;;;;12.70;100.00;101629.22;5066367;28;20044;-68
2022/07/17 00:06:55;;;;;;;5.00;2.10;;;;;;;12.74;100.00;101629.97;5052948;28;20029;-69
2022/07/17 00:09:20;;;;;;;4.07;2.10;;;;;;;12.83;100.00;101634.88;5066029;28;20188;-70
2022/07/17 00:11:46;;;;;;;3.88;1.80;;;;;;;12.81;100.00;101623.50;5060168;28;20081;-70
2022/07/17 00:14:11;;;;;;;4.20;1.98;;;;;;;12.89;100.00;101621.41;5067556;28;20051;-67
2022/07/17 00:16:36;;;;;;;5.60;1.83;;;;;;;12.96;100.00;101614.13;5061299;28;20480;-68
2022/07/17 00:19:02;;;;;;;12.63;3.50;;;;;;;12.74;100.00;101571.94;5055683;28;20056;-68
2022/07/17 00:21:28;;;;;;;10.43;1.95;;;;;;;13.02;100.00;101616.50;5075963;28;20086;-67
2022/07/17 00:23:53;;;;;;;6.18;2.28;;;;;;;13.05;100.00;101622.50;5067716;28;20055;-69
2022/07/17 00:26:18;;;;;;;4.63;2.03;;;;;;;13.00;100.00;101616.59;5069962;28;21431;-71
2022/07/17 00:28:44;;;;;;;5.55;1.83;;;;;;;13.03;100.00;101629.66;5073150;28;20025;-71
2022/07/17 00:31:09;;;;;;;2.83;1.60;;;;;;;12.96;100.00;101628.16;5065450;28;20147;-71
2022/07/17 00:33:35;;;;;;;5.00;2.15;;;;;;;12.73;100.00;101607.13;5060920;28;20041;-71
2022/07/17 00:36:00;;;;;;;5.28;1.95;;;;;;;12.64;100.00;101620.69;5064544;28;20040;-71
2022/07/17 00:38:26;;;;;;;6.47;2.05;;;;;;;12.37;100.00;101584.84;5115990;27;20067;-68
2022/07/17 00:40:58;;;;;;;2.97;1.48;;;;;;;12.51;100.00;101619.41;5079600;28;20044;-68
2022/07/17 00:43:24;;;;;;;5.25;2.00;;;;;;;12.43;100.00;101624.16;5074454;28;20048;-69
2022/07/17 00:46:00;;;;;;;4.55;2.10;;;;;;;12.39;100.00;101622.53;5078164;28;20048;-69
2022/07/17 00:48:26;;;;;;;16.15;2.22;;;;;;;12.30;100.00;101613.22;5082911;28;20028;-69
2022/07/17 00:50:52;;;;;;;3.63;2.20;;;;;;;11.94;100.00;101565.38;5068714;28;20031;-68
2022/07/17 00:53:18;;;;;;;5.97;2.28;;;;;;;12.19;100.00;101618.88;5074392;28;20037;-69
2022/07/17 00:55:46;;;;;;;8.75;2.17;;;;;;;12.11;100.00;101617.44;5078274;28;20031;-69
2022/07/17 00:58:17;;;;;;;5.72;2.00;;;;;;;12.03;100.00;101615.06;5073438;28;20031;-69
2022/07/17 01:00:43;;;;;;;6.80;2.25;;;;;;;11.86;100.00;101612.22;5090222;28;20198;-69
2022/07/17 01:03:09;;;;;;;5.07;2.22;;;;;;;11.85;100.00;101615.75;5068019;28;20420;-69
2022/07/17 01:05:34;;;;;;;5.05;2.10;;;;;;;11.83;100.00;101606.19;5075050;28;20039;-69
2022/07/17 01:08:00;;;;;;;7.15;2.00;;;;;;;11.72;100.00;101580.25;5064528;28;20029;-69
2022/07/17 01:10:25;;;;;;;5.93;2.13;;;;;;;11.81;100.00;101600.97;5077662;28;20482;-69
2022/07/17 01:12:50;;;;;;;4.18;2.17;;;;;;;11.79;100.00;101597.56;5070101;28;20025;-69
2022/07/17 01:15:16;;;;;;;6.38;1.92;;;;;;;11.71;100.00;101596.94;5073526;28;20025;-68
2022/07/17 01:17:42;;;;;;;6.95;2.30;;;;;;;11.74;100.00;101604.75;5068762;28;20029;-68
2022/07/17 01:20:09;;;;;;;5.70;2.38;;;;;;;11.62;100.00;101597.25;5070663;28;20032;-69
2022/07/17 01:22:42;;;;;;;5.50;2.40;;;;;;;11.60;100.00;101596.44;5074099;28;20021;-69
2022/07/17 01:25:08;;;;;;;7.22;2.42;;;;;;;11.43;100.00;101572.47;5069647;28;20020;-69
2022/07/17 01:27:33;;;;;;;5.53;2.92;;;;;;;11.36;100.00;101574.44;5080793;28;20040;-69
2022/07/17 01:29:59;;;;;;;6.60;3.67;;;;;;;11.38;100.00;101590.19;5058665;28;20456;-69
2022/07/17 01:32:32;;;;;;;6.75;3.03;;;;;;;11.35;100.00;101598.22;5075888;28;20471;-69
2022/07/17 01:34:57;;;;;;;8.82;4.68;;;;;;;11.37;100.00;101610.41;5070930;28;20032;-69
2022/07/17 01:37:23;;;;;;;8.50;4.05;;;;;;;11.29;100.00;101594.84;5067461;28;20369;-69
2022/07/17 01:39:54;;;;;;;12.48;5.30;;;;;;;11.31;100.00;101586.06;5081576;28;20121;-69
2022/07/17 01:42:21;;;;;;;5.95;3.45;;;;;;;11.36;100.00;101594.63;5071139;28;20029;-69
2022/07/17 01:44:46;;;;;;;8.32;3.90;;;;;;;11.29;100.00;101588.72;5067116;28;20017;-69
2022/07/17 01:47:14;;;;;;;7.80;5.03;;;;;;;11.34;100.00;101596.47;5080792;28;20486;-69
2022/07/17 01:49:43;;;;;;;13.38;4.82;;;;;;;11.26;100.00;101594.97;5085692;28;20059;-69
2022/07/17 01:52:08;;;;;;;6.97;3.08;;;;;;;11.10;100.00;101582.38;5073238;28;20109;-69
2022/07/17 01:54:34;;;;;;;6.35;3.47;;;;;;;11.09;100.00;101586.78;5054588;28;20080;-69
2022/07/17 01:56:59;;;;;;;7.03;2.70;;;;;;;11.03;100.00;101586.97;5056363;28;20063;-69
2022/07/17 01:59:25;;;;;;;9.18;2.70;;;;;;;11.02;100.00;101582.63;5072584;28;20095;-69
2022/07/17 02:01:50;;;;;;;7.07;3.92;;;;;;;10.98;100.00;101583.66;5069313;28;20033;-69
2022/07/17 02:04:15;;;;;;;5.65;2.75;;;;;;;10.92;100.00;101572.44;5075860;28;20025;-71
2022/07/17 02:06:41;;;;;;;5.25;2.53;;;;;;;11.04;100.00;101585.22;5066479;28;20045;-71
2022/07/17 02:09:06;;;;;;;7.43;2.83;;;;;;;11.01;100.00;101586.19;5068396;28;20036;-70
2022/07/17 02:11:32;;;;;;;6.57;3.33;;;;;;;10.88;100.00;101582.25;5061610;28;20082;-68
2022/07/17 02:13:57;;;;;;;7.20;2.78;;;;;;;10.89;100.00;101597.09;5062941;28;20033;-68
2022/07/17 02:16:22;;;;;;;5.63;2.42;;;;;;;10.90;100.00;101611.97;5065453;28;20490;-68
2022/07/17 02:18:48;;;;;;;7.53;3.00;;;;;;;10.79;100.00;101603.53;5052947;28;20057;-68
2022/07/17 02:21:13;;;;;;;5.32;2.78;;;;;;;10.80;100.00;101613.16;5090303;28;20016;-68
2022/07/17 02:23:38;;;;;;;5.22;2.67;;;;;;;10.62;100.00;101595.31;5084246;28;20035;-68
2022/07/17 02:26:04;;;;;;;5.40;2.60;;;;;;;10.59;100.00;101605.94;5066356;28;20028;-68
2022/07/17 02:28:29;;;;;;;4.95;2.75;;;;;;;10.54;100.00;101597.34;5077270;28;20069;-68
2022/07/17 02:30:55;;;;;;;6.88;2.97;;;;;;;10.52;100.00;101593.88;5075382;28;20424;-68
2022/07/17 02:33:20;;;;;;;6.28;3.03;;;;;;;10.44;100.00;101588.03;5073678;28;20019;-68
2022/07/17 02:35:45;;;;;;;5.88;2.50;;;;;;;10.32;100.00;101576.09;5074158;28;20104;-67
2022/07/17 02:38:11;;;;;;;4.82;2.33;;;;;;;10.45;100.00;101597.59;5066906;28;20044;-67
2022/07/17 02:40:36;;;;;;;4.78;2.63;;;;;;;10.48;100.00;101605.41;5068329;28;20113;-68
2022/07/17 02:43:01;;;;;;;5.40;2.95;;;;;;;10.47;100.00;101606.31;5085962;28;20036;-67
2022/07/17 02:45:27;;;;;;;8.38;2.72;;;;;;;10.45;100.00;101602.88;5065036;28;20024;-68
2022/07/17 02:47:54;;;;;;;6.97;2.83;;;;;;;10.29;100.00;101573.56;5063145;28;20032;-67
2022/07/17 02:50:20;;;;;;;4.95;2.58;;;;;;;10.45;100.00;101608.13;5070784;28;20033;-67
2022/07/17 02:52:46;;;;;;;5.68;2.38;;;;;;;10.42;100.00;101608.22;5072528;28;20131;-67
2022/07/17 02:55:11;;;;;;;7.05;2.55;;;;;;;10.23;100.00;101598.28;5078270;28;20034;-68
2022/07/17 02:57:37;;;;;;;7.78;2.88;;;;;;;10.19;100.00;101615.03;5080868;28;20036;-67
2022/07/17 03:00:05;;;;;;;6.32;2.22;;;;;;;9.96;100.00;101598.16;5072994;28;20100;-68
2022/07/17 03:02:31;;;;;;;9.20;2.40;;;;;;;10.05;100.00;101601.38;5071644;28;20032;-68
2022/07/17 03:04:56;;;;;;;6.32;2.55;;;;;;;10.11;100.00;101616.97;5055415;28;20031;-68
2022/07/17 03:07:21;;;;;;;6.25;2.67;;;;;;;10.13;100.00;101609.91;5084649;28;20036;-68
2022/07/17 03:09:47;;;;;;;4.03;2.45;;;;;;;10.08;100.00;101601.28;5078520;28;20102;-68
2022/07/17 03:12:12;;;;;;;6.15;2.67;;;;;;;10.03;100.00;101612.84;5076981;28;20054;-67
2022/07/17 03:14:37;;;;;;;8.20;2.47;;;;;;;9.90;100.00;101608.84;5051676;28;20824;-67
2022/07/17 03:17:03;;;;;;;8.55;2.95;;;;;;;9.95;100.00;101613.06;5089577;28;20028;-69
2022/07/17 03:19:28;;;;;;;4.63;2.72;;;;;;;9.99;100.00;101604.19;5070477;28;20033;-69
2022/07/17 03:21:53;;;;;;;4.85;2.58;;;;;;;9.87;100.00;101591.41;5051750;28;20048;-70
2022/07/17 03:24:19;;;;;;;6.32;2.42;;;;;;;9.85;100.00;101589.72;5071630;28;20089;-70
2022/07/17 03:26:44;;;;;;;9.00;2.78;;;;;;;9.84;100.00;101599.34;5079586;28;20399;-71
2022/07/17 03:29:10;;;;;;;4.45;2.30;;;;;;;9.87;100.00;101598.44;5087157;28;20028;-69
2022/07/17 03:31:35;;;;;;;9.00;2.67;;;;;;;9.87;100.00;101591.41;5081577;28;20032;-69
2022/07/17 03:34:00;;;;;;;5.35;2.75;;;;;;;9.76;100.00;101580.34;5081685;28;20036;-69
2022/07/17 03:36:26;;;;;;;8.32;3.00;;;;;;;9.75;100.00;101589.13;5072556;28;20036;-69
2022/07/17 03:38:51;;;;;;;5.13;3.00;;;;;;;9.69;100.00;101589.31;5062330;28;20033;-69
2022/07/17 03:41:16;;;;;;;4.00;2.53;;;;;;;9.72;100.00;101594.47;5067737;28;20590;-69
2022/07/17 03:43:42;;;;;;;6.25;3.03;;;;;;;9.69;100.00;101591.94;5060994;28;20058;-69
2022/07/17 03:46:07;;;;;;;6.68;3.08;;;;;;;9.65;100.00;101585.03;5063317;28;20032;-69
2022/07/17 03:48:34;;;;;;;7.90;2.95;;;;;;;9.75;100.00;101612.75;5057714;28;20046;-69
2022/07/17 03:50:59;;;;;;;7.22;3.42;;;;;;;9.67;100.00;101612.09;5060824;28;20387;-69
2022/07/17 03:53:25;;;;;;;9.07;3.35;;;;;;;9.73;100.00;101622.44;5078816;28;20027;-69
2022/07/17 03:55:50;;;;;;;6.30;3.63;;;;;;;9.73;100.00;101606.69;5094915;28;20029;-69
2022/07/17 03:58:15;;;;;;;7.10;3.28;;;;;;;9.70;100.00;101617.25;5069107;28;20048;-69
2022/07/17 04:00:41;;;;;;;8.73;3.88;;;;;;;9.73;100.00;101611.94;5079805;28;20095;-69
2022/07/17 04:03:06;;;;;;;6.32;3.70;;;;;;;9.72;100.00;101610.22;5090165;28;20751;-70
2022/07/17 04:05:32;;;;;;;9.20;4.05;;;;;;;9.73;100.00;101606.69;5078785;28;20051;-70
2022/07/17 04:07:58;;;;;;;5.85;3.58;;;;;;;9.73;100.00;101609.31;5070474;28;20068;-70
2022/07/17 04:10:23;;;;;;;8.57;4.80;;;;;;;9.59;100.00;101587.84;5070491;28;20059;-70
2022/07/17 04:12:49;;;;;;;6.82;3.47;;;;;;;9.65;100.00;101598.16;5066663;28;20385;-70
2022/07/17 04:15:49;;;;;;;5.95;3.72;;;;;;;9.67;100.00;101598.97;5087893;28;20071;-69
2022/07/17 04:17:59;;;;;;;10.00;4.78;;;;;;;9.77;100.00;101618.81;5059580;28;20064;-70
2022/07/17 04:20:26;;;;;;;6.80;3.60;;;;;;;9.78;100.00;101610.03;5066345;28;20454;-70
2022/07/17 04:22:51;;;;;;;8.40;4.78;;;;;;;9.60;100.00;101573.78;5066686;28;20067;-70
2022/07/17 04:25:17;;;;;;;5.40;3.65;;;;;;;9.88;100.00;101610.63;5076305;28;20032;-70
2022/07/17 04:27:42;;;;;;;7.13;4.30;;;;;;;9.90;100.00;101609.69;5082646;28;20032;-69
2022/07/17 04:30:08;;;;;;;12.20;4.65;;;;;;;9.77;100.00;101600.44;5072526;28;20464;-68
2022/07/17 04:32:33;;;;;;;14.32;4.45;;;;;;;9.80;100.00;101616.09;5090029;28;20076;-69
2022/07/17 04:34:59;;;;;;;11.77;4.55;;;;;;;9.94;100.00;101627.06;5069914;28;20029;-69
2022/07/17 04:37:24;;;;;;;7.72;4.05;;;;;;;9.88;100.00;101608.88;5058135;28;20440;-69
2022/07/17 04:39:49;;;;;;;6.65;4.20;;;;;;;10.01;100.00;101623.38;5057317;28;20035;-69
2022/07/17 04:42:14;;;;;;;11.73;3.80;;;;;;;10.03;100.00;101616.34;5074965;28;20079;-69
2022/07/17 04:44:40;;;;;;;11.98;4.00;;;;;;;10.15;100.00;101618.63;5072487;28;20120;-68
2022/07/17 04:47:05;;;;;;;5.68;4.22;;;;;;;10.22;100.00;101621.94;5057059;28;20464;-69
2022/07/17 04:49:31;;;;;;;7.13;4.68;;;;;;;10.15;100.00;101589.75;5071311;28;20661;-69
2022/07/17 04:51:56;;;;;;;10.23;4.82;;;;;;;10.34;100.00;101620.75;5073467;28;20102;-69
2022/07/17 04:54:21;;;;;;;9.25;4.90;;;;;;;10.27;100.00;101599.88;5063032;28;20039;-69
2022/07/17 04:56:47;;;;;;;8.55;4.75;;;;;;;10.56;100.00;101634.94;5071272;28;20024;-69
2022/07/17 04:59:12;;;;;;;8.93;4.78;;;;;;;10.66;100.00;101639.00;5088080;28;20372;-68
2022/07/17 05:01:38;;;;;;;7.97;4.53;;;;;;;10.68;100.00;101626.66;5058308;28;20029;-69
2022/07/17 05:04:04;;;;;;;7.32;4.05;;;;;;;10.76;100.00;101635.19;5093187;28;20034;-69
2022/07/17 05:06:29;;;;;;;9.02;4.32;;;;;;;10.82;100.00;101636.75;5080538;28;20390;-69
2022/07/17 05:08:55;;;;;;;7.57;3.63;;;;;;;10.88;100.00;101644.47;5068987;28;20029;-68
2022/07/17 05:11:20;;;;;;;5.03;3.47;;;;;;;10.93;100.00;101638.16;5066601;28;20116;-68
2022/07/17 05:13:45;;;;;;;7.32;4.38;;;;;;;11.00;100.00;101647.56;5089662;28;20356;-69
2022/07/17 05:16:11;;;;;;;8.35;4.45;;;;;;;11.07;100.00;101646.47;5076494;28;20044;-68
2022/07/17 05:18:36;;;;;;;15.38;7.07;;;;;;;11.15;100.00;101640.97;5069521;28;20028;-69
2022/07/17 05:21:02;;;;;;;13.00;6.35;;;;;;;11.24;100.00;101627.50;5081529;28;20020;-69
2022/07/17 05:23:27;;;;;;;8.82;5.50;;;;;;;11.35;100.00;101612.22;5072864;28;20032;-69
2022/07/17 05:25:53;;;;;;;9.02;5.60;;;;;;;11.66;100.00;101643.63;5061619;28;20026;-69
2022/07/17 05:28:18;;;;;;;7.18;5.47;;;;;;;11.79;100.00;101650.22;5076075;28;20031;-69
2022/07/17 05:30:43;;;;;;;10.30;4.75;;;;;;;11.81;100.00;101637.84;5083303;28;20024;-69
2022/07/17 05:33:09;;;;;;;10.38;5.45;;;;;;;11.89;100.00;101648.13;5050225;28;20059;-69
2022/07/17 05:35:34;;;;;;;8.30;4.93;;;;;;;11.78;100.00;101614.25;5053446;28;20460;-69
2022/07/17 05:37:59;;;;;;;11.25;5.43;;;;;;;12.11;100.00;101649.03;5072921;28;20033;-69
2022/07/17 05:40:25;;;;;;;15.07;5.10;;;;;;;12.15;100.00;101646.25;5084032;28;20047;-69
2022/07/17 05:42:51;;;;;;;12.07;5.63;;;;;;;12.27;100.00;101648.44;5062681;28;20444;-69
2022/07/17 05:45:16;;;;;;;9.38;5.95;;;;;;;12.35;100.00;101649.91;5063837;28;20033;-68
2022/07/17 05:47:42;;;;;;;7.03;4.63;;;;;;;12.60;100.00;101659.50;5051482;28;20032;-68
2022/07/17 05:50:07;;;;;;;10.20;5.35;;;;;;;12.72;100.00;101642.31;5061799;28;20120;-68
2022/07/17 05:52:33;;;;;;;9.68;5.43;;;;;;;12.88;100.00;101643.44;5082369;28;20089;-68
2022/07/17 05:54:58;;;;;;;7.50;4.72;;;;;;;12.73;100.00;101588.66;5079912;28;20021;-68
2022/07/17 05:57:24;;;;;;;6.82;4.35;;;;;;;13.19;100.00;101643.97;5064501;28;20056;-68
2022/07/17 05:59:49;;;;;;;10.18;4.90;;;;;;;13.20;100.00;101629.84;5066230;28;20039;-68
2022/07/17 06:02:14;;;;;;;8.13;5.13;;;;;;;13.32;100.00;101634.59;5062034;28;20017;-67
2022/07/17 06:04:40;;;;;;;5.47;3.78;;;;;;;13.43;100.00;101642.09;5074082;28;20044;-68
2022/07/17 06:07:05;;;;;;;5.80;3.50;;;;;;;13.47;100.00;101626.97;5068020;28;20506;-68
2022/07/17 06:09:31;;;;;;;10.07;4.45;;;;;;;13.51;100.00;101628.56;5054385;28;20043;-68
2022/07/17 06:11:57;;;;;;;10.80;4.50;;;;;;;13.61;100.00;101635.16;5059164;28;20024;-68
2022/07/17 06:14:24;;;;;;;5.85;3.53;;;;;;;13.64;100.00;101621.84;5076076;28;20052;-68
2022/07/17 06:16:50;;;;;;;6.22;3.22;;;;;;;13.82;100.00;101644.81;5045458;28;20025;-68
2022/07/17 06:19:15;;;;;;;6.18;2.63;;;;;;;13.82;100.00;101632.44;5093317;28;20031;-68
2022/07/17 06:21:40;;;;;;;11.18;3.85;;;;;;;13.98;100.00;101651.16;5065473;28;20029;-68
2022/07/17 06:24:06;;;;;;;5.95;3.13;;;;;;;14.03;100.00;101628.00;5059383;28;20417;-68
2022/07/17 06:26:31;;;;;;;10.52;3.53;;;;;;;14.21;100.00;101655.41;5073738;28;20051;-68
2022/07/17 06:28:56;;;;;;;8.85;2.88;;;;;;;14.23;100.00;101635.88;5072478;28;20028;-68
2022/07/17 06:31:22;;;;;;;6.50;2.80;;;;;;;14.44;100.00;101649.94;5077069;28;20035;-68
2022/07/17 06:33:48;;;;;;;8.50;3.67;;;;;;;14.57;100.00;101650.22;5068273;28;20060;-68
2022/07/17 06:36:13;;;;;;;9.50;3.47;;;;;;;14.60;100.00;101645.66;5057195;28;20364;-68
2022/07/17 06:38:39;;;;;;;8.63;3.10;;;;;;;14.65;100.00;101642.81;5063052;28;20086;-68
2022/07/17 06:41:04;;;;;;;6.60;3.35;;;;;;;14.79;100.00;101645.66;5073633;28;20036;-67
2022/07/17 06:43:30;;;;;;;8.35;3.30;;;;;;;14.76;100.00;101635.22;5071009;28;20024;-68
2022/07/17 06:45:55;;;;;;;10.05;3.42;;;;;;;14.88;100.00;101634.63;5052879;28;20025;-68
2022/07/17 06:48:21;;;;;;;5.70;2.78;;;;;;;14.97;100.00;101636.81;5055217;28;20485;-68
2022/07/17 06:50:46;;;;;;;10.02;4.32;;;;;;;15.08;100.00;101647.75;5054053;28;20433;-68
2022/07/17 06:53:12;;;;;;;7.35;4.28;;;;;;;15.13;100.00;101635.16;5070187;28;20037;-68
2022/07/17 06:55:38;;;;;;;10.50;3.75;;;;;;;15.21;100.00;101634.75;5062885;28;20027;-68
2022/07/17 06:58:03;;;;;;;7.32;4.13;;;;;;;15.17;100.00;101622.63;5078828;28;20035;-68
2022/07/17 07:00:29;;;;;;;10.20;3.75;;;;;;;15.26;100.00;101640.69;5060979;28;20079;-68
2022/07/17 07:02:54;;;;;;;18.42;3.83;;;;;;;15.49;100.00;101643.09;5074101;28;20032;-68
2022/07/17 07:05:19;;;;;;;11.73;4.28;;;;;;;15.63;100.00;101645.03;5051623;28;20024;-68
2022/07/17 07:07:45;;;;;;;6.40;3.80;;;;;;;15.70;100.00;101657.03;5071263;28;20028;-68
2022/07/17 07:10:10;;;;;;;12.55;4.68;;;;;;;15.76;100.00;101649.63;5057204;28;20929;-68
2022/07/17 07:12:36;;;;;;;12.70;4.40;;;;;;;15.85;100.00;101650.94;5054673;28;20051;-68
2022/07/17 07:15:01;;;;;;;8.60;4.05;;;;;;;16.01;100.00;101659.81;5064523;28;20398;-68
2022/07/17 07:17:26;;;;;;;9.07;3.50;;;;;;;16.13;100.00;101658.31;5059034;28;20078;-68
2022/07/17 07:19:52;;;;;;;6.63;3.92;;;;;;;16.15;100.00;101645.84;5073107;28;20103;-68
2022/07/17 07:22:17;;;;;;;6.50;3.17;;;;;;;16.05;100.00;101611.00;5062703;28;20040;-68
2022/07/17 07:24:43;;;;;;;9.23;3.88;;;;;;;16.31;100.00;101644.06;5074795;28;20063;-68
2022/07/17 07:27:08;;;;;;;7.15;2.83;;;;;;;16.31;100.00;101634.31;5059736;28;20037;-68
2022/07/17 07:29:33;;;;;;;8.98;3.72;;;;;;;16.48;100.00;101651.09;5071846;28;20550;-68
2022/07/17 07:31:59;;;;;;;11.98;3.60;;;;;;;16.53;100.00;101654.34;5063983;28;20037;-68
2022/07/17 07:34:24;;;;;;;5.43;3.25;;;;;;;16.60;100.00;101661.06;5052717;28;20123;-68
2022/07/17 07:36:50;;;;;;;11.00;3.05;;;;;;;16.63;100.00;101655.59;5059710;28;20336;-68
2022/07/17 07:39:15;;;;;;;7.90;3.53;;;;;;;16.67;100.00;101651.84;5072794;28;20043;-68
2022/07/17 07:41:41;;;;;;;6.40;2.75;;;;;;;16.81;100.00;101660.75;5050927;28;20047;-68
2022/07/17 07:44:07;;;;;;;4.60;2.55;;;;;;;17.03;100.00;101665.72;5061977;28;20108;-69
2022/07/17 07:46:33;;;;;;;6.80;2.47;;;;;;;17.07;100.00;101651.31;5054460;28;20081;-68
2022/07/17 07:48:59;;;;;;;8.10;2.83;;;;;;;17.38;100.00;101680.50;5052457;28;20138;-69
2022/07/17 07:51:24;;;;;;;10.52;3.35;;;;;;;17.53;100.00;101668.13;5070414;28;20171;-69
2022/07/17 07:53:49;;;;;;;5.57;2.65;;;;;;;17.64;100.00;101670.19;5084660;28;20028;-69
2022/07/17 07:56:15;;;;;;;7.85;3.25;;;;;;;17.61;100.00;101641.09;5060081;28;20033;-68
2022/07/17 07:58:40;;;;;;;6.63;2.80;;;;;;;17.71;100.00;101652.94;5069994;28;20483;-69
2022/07/17 08:01:05;;;;;;;9.00;2.97;;;;;;;17.82;100.00;101677.06;5060240;28;20111;-69
2022/07/17 08:03:31;;;;;;;6.93;2.85;;;;;;;17.76;100.00;101662.31;5065903;28;20021;-69
2022/07/17 08:05:56;;;;;;;8.02;3.20;;;;;;;17.90;100.00;101684.56;5062193;28;20032;-69
2022/07/17 08:08:22;;;;;;;9.32;2.88;;;;;;;18.08;100.00;101672.84;5071958;28;20039;-69
2022/07/17 08:10:47;;;;;;;8.05;3.10;;;;;;;18.18;100.00;101669.50;5061805;28;20033;-69
2022/07/17 08:13:13;;;;;;;11.20;3.03;;;;;;;18.34;100.00;101669.41;5052340;28;20025;-69
2022/07/17 08:15:38;;;;;;;6.55;3.10;;;;;;;18.34;100.00;101656.97;5055427;28;20031;-69
2022/07/17 08:18:03;;;;;;;9.00;3.00;;;;;;;18.51;100.00;101673.72;5068098;28;20110;-70
2022/07/17 08:20:29;;;;;;;9.50;2.53;;;;;;;18.56;100.00;101669.81;5062847;28;20039;-69
2022/07/17 08:22:54;;;;;;;4.03;2.08;;;;;;;18.66;100.00;101680.72;5052818;28;20143;-69
2022/07/17 08:25:19;;;;;;;7.80;2.72;;;;;;;18.68;100.00;101669.06;5056309;28;20021;-69
2022/07/17 08:27:45;;;;;;;8.10;2.65;;;;;;;18.13;100.00;101575.81;5066688;28;20032;-68
2022/07/17 08:30:13;;;;;;;5.10;1.92;;;;;;;18.81;100.00;101687.75;5050640;28;20486;-69
2022/07/17 08:32:39;;;;;;;5.40;1.92;;;;;;;18.81;100.00;101690.41;5064903;28;20399;-69
2022/07/17 08:35:05;;;;;;;5.00;2.17;;;;;;;18.80;100.00;101678.06;5058357;28;20036;-69
2022/07/17 08:37:30;;;;;;;6.05;1.98;;;;;;;18.80;100.00;101672.72;5095730;28;20499;-69
2022/07/17 08:39:56;;;;;;;7.20;2.28;;;;;;;18.89;100.00;101674.81;5060172;28;20060;-69
2022/07/17 08:42:22;;;;;;;7.13;1.88;;;;;;;18.92;100.00;101681.75;5062582;28;20056;-69
2022/07/17 08:44:47;;;;;;;4.72;2.13;;;;;;;18.93;100.00;101676.31;5057594;28;20039;-69
2022/07/17 08:47:14;;;;;;;3.97;1.65;;;;;;;19.04;100.00;101676.47;5072139;28;20137;-68
2022/07/17 08:49:48;;;;;;;3.55;1.63;;;;;;;19.12;100.00;101668.84;5058583;28;20155;-68
2022/07/17 08:52:14;;;;;;;5.22;2.47;;;;;;;19.22;100.00;101675.28;5069677;28;20487;-69
2022/07/17 08:54:40;;;;;;;4.05;1.95;;;;;;;19.10;98.56;101646.75;5073273;28;20367;-69
2022/07/17 08:57:07;;;;;;;10.32;2.50;;;;;;;19.34;97.24;101669.13;5064678;28;20020;-68
2022/07/17 08:59:33;;;;;;;11.90;2.13;;;;;;;19.49;95.71;101677.97;5080977;28;20029;-69
2022/07/17 09:01:59;;;;;;;8.48;2.15;;;;;;;19.61;100.00;101677.13;5064978;28;20074;-69
2022/07/17 09:04:25;;;;;;;7.03;1.95;;;;;;;19.72;98.87;101658.59;5071364;28;20078;-68
2022/07/17 09:07:04;;;;;;;4.15;1.88;;;;;;;19.83;98.61;101666.72;5080171;28;20020;-69
2022/07/17 09:09:30;;;;;;;5.35;2.00;;;;;;;19.96;93.73;101668.53;5067110;28;20051;-69
2022/07/17 09:11:58;;;;;;;6.13;2.55;;;;;;;19.79;91.24;101654.56;5065938;28;20110;-70
2022/07/17 09:14:24;;;;;;;5.60;2.28;;;;;;;20.00;90.60;101678.91;5071945;28;20030;-69
2022/07/17 09:16:49;;;;;;;5.53;2.40;;;;;;;20.05;91.43;101674.09;5081557;28;20447;-69
2022/07/17 09:19:32;;;;;;;5.32;2.33;;;;;;;20.17;91.39;101675.06;5067145;28;20075;-69
2022/07/17 09:22:12;;;;;;;5.18;2.35;;;;;;;20.29;91.82;101668.88;5072738;28;20111;-70
2022/07/17 09:24:57;;;;;;;6.43;2.50;;;;;;;20.38;90.10;101653.06;5064744;28;20031;-69
2022/07/17 09:27:23;;;;;;;8.88;2.67;;;;;;;20.49;87.74;101668.31;5061231;28;20032;-70
2022/07/17 09:29:57;;;;;;;9.48;2.28;;;;;;;20.51;86.63;101657.56;5063418;28;20489;-70
2022/07/17 09:32:25;;;;;;;5.22;2.17;;;;;;;20.61;87.01;101659.47;5060993;28;20473;-70
2022/07/17 09:34:52;;;;;;;3.67;1.88;;;;;;;20.67;85.66;101664.34;5083712;28;20503;-69
2022/07/17 09:37:17;;;;;;;6.45;2.03;;;;;;;20.62;82.97;101654.94;5063304;28;20417;-70
2022/07/17 09:39:43;;;;;;;4.45;2.00;;;;;;;20.71;82.02;101667.66;5086628;28;20040;-70
2022/07/17 09:42:10;;;;;;;9.48;2.00;;;;;;;20.65;83.23;101660.91;5073998;28;20509;-70
2022/07/17 09:44:35;;;;;;;10.43;2.63;;;;;;;20.75;83.77;101656.63;5077075;28;20036;-69
2022/07/17 09:47:02;;;;;;;5.00;2.25;;;;;;;20.85;82.80;101659.50;5054015;28;20166;-70
2022/07/17 09:49:27;;;;;;;6.07;2.20;;;;;;;20.95;82.57;101668.56;5065732;28;20124;-70
2022/07/17 09:51:54;;;;;;;5.70;1.70;;;;;;;21.00;80.16;101666.38;5078037;28;20530;-69
2022/07/17 09:54:23;;;;;;;4.50;2.10;;;;;;;20.96;77.03;101662.22;5065233;28;20046;-71
2022/07/17 09:56:57;;;;;;;4.18;2.03;;;;;;;20.96;75.55;101670.25;5066820;28;20460;-70
2022/07/17 09:59:23;;;;;;;;;;;;;;;21.01;76.25;101670.78;5054830;28;20064;-70
2022/07/17 10:01:49;;;;;;;5.28;2.30;;;;;;;21.04;74.94;101664.34;5054780;28;19915;-70
2022/07/17 10:04:16;;;;;;;5.30;2.03;;;;;;;21.09;77.28;101662.19;5065620;28;20109;-69
2022/07/17 10:06:42;;;;;;;4.07;1.90;;;;;;;21.20;78.36;101660.44;5059925;28;20095;-70
2022/07/17 10:09:07;;;;;;;5.38;2.25;;;;;;;21.20;78.24;101643.53;5078737;28;20043;-70
2022/07/17 10:11:36;;;;;;;5.53;1.85;;;;;;;21.39;77.57;101666.13;5067147;28;20033;-69
2022/07/17 10:14:08;;;;;;;6.38;1.92;;;;;;;21.38;77.13;101640.38;5047371;28;20074;-69
2022/07/17 10:16:35;;;;;;;5.90;1.77;;;;;;;21.34;77.32;101638.03;5090653;28;20051;-69
2022/07/17 10:19:02;;;;;;;5.13;1.80;;;;;;;21.66;77.08;101659.66;5071451;28;20032;-69
2022/07/17 10:21:30;;;;;;;6.15;2.55;;;;;;;21.52;73.54;101641.13;5088554;28;20032;-70
2022/07/17 10:23:56;;;;;;;6.82;1.83;;;;;;;21.65;75.22;101663.31;5073298;28;20040;-70
2022/07/17 10:26:36;;;;;;;5.55;1.92;;;;;;;21.76;74.97;101666.88;5058105;28;20036;-71
2022/07/17 10:29:03;;;;;;;6.60;2.17;;;;;;;21.84;73.40;101647.53;5072143;28;20028;-71
2022/07/17 10:31:30;;;;;;;5.63;2.10;;;;;;;22.05;73.97;101677.19;5083249;28;20040;-69
2022/07/17 10:34:00;;;;;;;4.35;1.88;;;;;;;22.10;71.37;101670.50;5058622;28;20171;-71
2022/07/17 10:36:41;;;;;;;4.80;2.08;;;;;;;22.14;73.39;101665.75;5054774;28;20043;-69
2022/07/17 10:39:14;;;;;;;5.82;1.95;;;;;;;22.30;73.00;101676.97;5056603;28;20020;-69
2022/07/17 10:41:40;;;;;;;5.68;2.38;;;;;;;22.22;73.17;101642.75;5062713;28;20371;-69
2022/07/17 10:44:06;;;;;;;6.72;2.15;;;;;;;22.39;71.23;101663.72;5055762;28;20052;-69
2022/07/17 10:46:31;;;;;;;5.32;2.22;;;;;;;22.37;70.74;101654.91;5052628;28;20075;-69
2022/07/17 10:48:57;;;;;;;6.63;2.30;;;;;;;22.41;69.70;101674.28;5061938;28;20056;-70
2022/07/17 10:51:27;;;;;;;7.70;2.35;;;;;;;22.30;67.24;101648.38;5059372;28;20021;-70
2022/07/17 10:53:56;;;;;;;6.05;1.92;;;;;;;22.38;69.21;101659.31;5074282;28;20424;-69
2022/07/17 10:56:21;;;;;;;6.35;2.38;;;;;;;22.54;68.01;101656.28;5057880;28;20026;-69
2022/07/17 10:58:46;;;;;;;4.75;1.90;;;;;;;22.65;67.50;101658.06;5076442;28;20047;-70
2022/07/17 11:01:17;;;;;;;3.35;1.77;;;;;;;22.85;69.15;101662.69;5088529;28;20063;-69
2022/07/17 11:03:45;;;;;;;3.60;1.80;;;;;;;22.78;69.85;101634.69;5060927;28;20048;-70
2022/07/17 11:06:15;;;;;;;9.13;2.63;;;;;;;23.17;69.28;101655.56;5083992;28;20028;-70
2022/07/17 11:08:54;;;;;;;4.65;1.88;;;;;;;23.37;69.54;101659.25;5068431;28;20028;-70
2022/07/17 11:11:21;;;;;;;6.90;2.28;;;;;;;23.65;65.53;101657.84;5084203;28;20035;-69
2022/07/17 11:13:47;;;;;;;3.95;1.83;;;;;;;23.76;65.54;101663.97;5067169;28;20020;-70
2022/07/17 11:16:23;;;;;;;5.43;2.10;;;;;;;23.64;61.52;101666.84;5083007;28;20028;-69